TIX221 KCLE-KRDU
Flight info
| Callsign | TIX221 |
|---|---|
| Flight time | N/A |
| Altitude | 35000 |
| Route | KKIDS1 NUSMM EKN/N0453F340 FRIKY ALDAN4 |
| Aircraft | B738/M-SDGIJ1LRWY/SB1 |
Departure
| Time | 2026-05-06 23:52 |
|---|---|
| Airport | Cleveland Hopkins International Airport (KCLE) |
Arrival
| Time | N/A |
|---|---|
| Airport | Raleigh-Durham International Airport (KRDU) |
| Time | Latitude | Longitude | Altitude | Speed | Heading |
|---|---|---|---|---|---|
| 2026-05-06 23:22 | 41.40886 | -81.83949 | 794 ft | 0 kts | 323° |
| 2026-05-06 23:41 | 41.40879 | -81.83942 | 794 ft | 2 kts | 317° |
| 2026-05-06 23:41 | 41.40868 | -81.83927 | 794 ft | 2 kts | 307° |
| 2026-05-06 23:42 | 41.40860 | -81.83911 | 794 ft | 2 kts | 297° |
| 2026-05-06 23:42 | 41.40854 | -81.83892 | 794 ft | 2 kts | 288° |
| 2026-05-06 23:42 | 41.40850 | -81.83873 | 794 ft | 2 kts | 278° |
| 2026-05-06 23:42 | 41.40849 | -81.83853 | 794 ft | 2 kts | 269° |
| 2026-05-06 23:43 | 41.40850 | -81.83834 | 794 ft | 1 kts | 261° |
| 2026-05-06 23:43 | 41.40851 | -81.83830 | 794 ft | 0 kts | 262° |
| 2026-05-06 23:45 | 41.40850 | -81.83843 | 794 ft | 4 kts | 262° |
| 2026-05-06 23:45 | 41.40833 | -81.83901 | 794 ft | 9 kts | 235° |
| 2026-05-06 23:45 | 41.40766 | -81.83970 | 794 ft | 15 kts | 212° |
| 2026-05-06 23:46 | 41.40667 | -81.84050 | 793 ft | 17 kts | 212° |
| 2026-05-06 23:46 | 41.40609 | -81.84190 | 793 ft | 19 kts | 270° |
| 2026-05-06 23:46 | 41.40614 | -81.84377 | 793 ft | 21 kts | 272° |
| 2026-05-06 23:46 | 41.40621 | -81.84586 | 791 ft | 23 kts | 275° |
| 2026-05-06 23:47 | 41.40631 | -81.84792 | 790 ft | 21 kts | 274° |
| 2026-05-06 23:47 | 41.40639 | -81.84989 | 788 ft | 21 kts | 273° |
| 2026-05-06 23:47 | 41.40648 | -81.85196 | 785 ft | 22 kts | 272° |
| 2026-05-06 23:47 | 41.40630 | -81.85403 | 783 ft | 23 kts | 237° |
| 2026-05-06 23:48 | 41.40528 | -81.85571 | 782 ft | 23 kts | 230° |
| 2026-05-06 23:48 | 41.40424 | -81.85735 | 780 ft | 23 kts | 230° |
| 2026-05-06 23:48 | 41.40316 | -81.85899 | 778 ft | 23 kts | 219° |
| 2026-05-06 23:48 | 41.40161 | -81.85973 | 777 ft | 23 kts | 208° |
| 2026-05-06 23:49 | 41.40047 | -81.86130 | 774 ft | 24 kts | 230° |
| 2026-05-06 23:49 | 41.39936 | -81.86306 | 770 ft | 25 kts | 229° |
| 2026-05-06 23:49 | 41.39819 | -81.86490 | 765 ft | 26 kts | 230° |
| 2026-05-06 23:49 | 41.39701 | -81.86677 | 761 ft | 24 kts | 230° |
| 2026-05-06 23:50 | 41.39671 | -81.86852 | 760 ft | 19 kts | 318° |
| 2026-05-06 23:50 | 41.39685 | -81.86867 | 760 ft | 0 kts | 319° |
| 2026-05-06 23:51 | 41.39700 | -81.86884 | 759 ft | 6 kts | 320° |
| 2026-05-06 23:51 | 41.39763 | -81.86941 | 759 ft | 14 kts | 343° |
| 2026-05-06 23:51 | 41.39849 | -81.86873 | 759 ft | 16 kts | 50° |
| 2026-05-06 23:51 | 41.40004 | -81.86626 | 762 ft | 65 kts | 50° |
| 2026-05-06 23:52 | 41.40436 | -81.85941 | 777 ft | 125 kts | 49° |
| 2026-05-06 23:52 | 41.41110 | -81.84862 | 855 ft | 167 kts | 49° |
| 2026-05-06 23:52 | 41.41864 | -81.83672 | 1423 ft | 170 kts | 49° |
| 2026-05-06 23:52 | 41.42610 | -81.82458 | 1727 ft | 178 kts | 57° |
| 2026-05-06 23:53 | 41.42992 | -81.80872 | 1686 ft | 186 kts | 86° |
| 2026-05-06 23:53 | 41.43004 | -81.79168 | 2095 ft | 193 kts | 79° |
| 2026-05-06 23:53 | 41.43395 | -81.77394 | 2398 ft | 207 kts | 68° |
| 2026-05-06 23:53 | 41.43862 | -81.75483 | 2727 ft | 226 kts | 72° |
| 2026-05-06 23:54 | 41.44261 | -81.73399 | 3183 ft | 238 kts | 75° |
| 2026-05-06 23:54 | 41.44629 | -81.71227 | 3725 ft | 245 kts | 75° |
| 2026-05-06 23:54 | 41.45007 | -81.68985 | 4275 ft | 252 kts | 77° |
| 2026-05-06 23:54 | 41.45171 | -81.66622 | 4745 ft | 265 kts | 94° |
| 2026-05-06 23:55 | 41.44589 | -81.64222 | 5176 ft | 278 kts | 123° |
| 2026-05-06 23:55 | 41.43324 | -81.62241 | 5733 ft | 283 kts | 136° |
| 2026-05-06 23:55 | 41.41891 | -81.60348 | 5996 ft | 290 kts | 137° |
| 2026-05-06 23:55 | 41.40475 | -81.58456 | 6000 ft | 286 kts | 136° |
| 2026-05-06 23:56 | 41.39076 | -81.56555 | 6001 ft | 287 kts | 136° |
| 2026-05-06 23:56 | 41.37681 | -81.54638 | 6001 ft | 287 kts | 136° |
| 2026-05-06 23:56 | 41.36272 | -81.52701 | 6134 ft | 297 kts | 135° |
| 2026-05-06 23:56 | 41.34858 | -81.50756 | 6938 ft | 295 kts | 137° |
| 2026-05-06 23:57 | 41.33440 | -81.48808 | 7762 ft | 293 kts | 137° |
| 2026-05-06 23:57 | 41.31998 | -81.46886 | 8455 ft | 295 kts | 142° |
| 2026-05-06 23:57 | 41.30304 | -81.45332 | 9045 ft | 293 kts | 161° |
| 2026-05-06 23:57 | 41.28384 | -81.44421 | 9715 ft | 293 kts | 171° |
| 2026-05-06 23:58 | 41.26435 | -81.43712 | 10388 ft | 295 kts | 172° |
| 2026-05-06 23:58 | 41.24380 | -81.42968 | 10799 ft | 311 kts | 171° |
| 2026-05-06 23:58 | 41.22269 | -81.42147 | 11238 ft | 325 kts | 170° |
| 2026-05-06 23:58 | 41.20045 | -81.41232 | 11687 ft | 339 kts | 169° |
| 2026-05-06 23:59 | 41.17736 | -81.40161 | 12080 ft | 356 kts | 166° |
| 2026-05-06 23:59 | 41.15394 | -81.38939 | 12771 ft | 362 kts | 166° |
| 2026-05-06 23:59 | 41.13030 | -81.37661 | 13395 ft | 370 kts | 165° |
| 2026-05-06 23:59 | 41.10669 | -81.36381 | 14291 ft | 368 kts | 166° |
| 2026-05-07 00:00 | 41.08279 | -81.35106 | 14944 ft | 374 kts | 167° |
| 2026-05-07 00:00 | 41.05798 | -81.33807 | 15604 ft | 380 kts | 169° |
| 2026-05-07 00:00 | 41.03280 | -81.32502 | 16290 ft | 384 kts | 169° |
| 2026-05-07 00:00 | 41.00744 | -81.31195 | 16878 ft | 390 kts | 169° |
| 2026-05-07 00:01 | 40.98210 | -81.29893 | 17551 ft | 393 kts | 170° |
| 2026-05-07 00:01 | 40.95615 | -81.28559 | 18176 ft | 398 kts | 171° |
| 2026-05-07 00:01 | 40.93039 | -81.27235 | 18805 ft | 402 kts | 172° |
| 2026-05-07 00:01 | 40.90397 | -81.25886 | 19249 ft | 410 kts | 172° |
| 2026-05-07 00:02 | 40.87691 | -81.24491 | 20158 ft | 406 kts | 172° |
| 2026-05-07 00:02 | 40.84980 | -81.23097 | 20539 ft | 416 kts | 172° |
| 2026-05-07 00:02 | 40.82309 | -81.21723 | 21304 ft | 414 kts | 173° |
| 2026-05-07 00:02 | 40.79624 | -81.20348 | 21806 ft | 419 kts | 174° |
| 2026-05-07 00:03 | 40.76935 | -81.18833 | 22629 ft | 426 kts | 168° |
| 2026-05-07 00:03 | 40.74360 | -81.16482 | 22872 ft | 467 kts | 150° |
| 2026-05-07 00:03 | 40.72227 | -81.13041 | 23533 ft | 494 kts | 134° |
| 2026-05-07 00:03 | 40.70555 | -81.08981 | 23915 ft | 512 kts | 127° |
| 2026-05-07 00:04 | 40.69071 | -81.04636 | 24295 ft | 522 kts | 123° |
| 2026-05-07 00:04 | 40.67668 | -81.00231 | 24746 ft | 527 kts | 122° |
| 2026-05-07 00:04 | 40.66240 | -80.95670 | 25049 ft | 535 kts | 121° |
| 2026-05-07 00:04 | 40.64823 | -80.91113 | 25574 ft | 537 kts | 122° |
| 2026-05-07 00:05 | 40.63428 | -80.86581 | 26180 ft | 537 kts | 121° |
| 2026-05-07 00:05 | 40.62029 | -80.82008 | 26437 ft | 545 kts | 121° |
| 2026-05-07 00:05 | 40.60571 | -80.77309 | 26927 ft | 546 kts | 122° |
| 2026-05-07 00:05 | 40.59028 | -80.72726 | 27251 ft | 548 kts | 125° |
| 2026-05-07 00:06 | 40.57324 | -80.68246 | 27540 ft | 549 kts | 128° |
| 2026-05-07 00:06 | 40.55477 | -80.63851 | 28131 ft | 543 kts | 131° |
| 2026-05-07 00:06 | 40.53416 | -80.59740 | 28469 ft | 534 kts | 139° |
| 2026-05-07 00:06 | 40.50997 | -80.56081 | 28793 ft | 521 kts | 149° |
| 2026-05-07 00:07 | 40.48286 | -80.52995 | 29221 ft | 503 kts | 158° |
| 2026-05-07 00:07 | 40.45426 | -80.50576 | 29703 ft | 483 kts | 168° |
| 2026-05-07 00:07 | 40.42424 | -80.48781 | 30244 ft | 461 kts | 176° |
| 2026-05-07 00:07 | 40.39406 | -80.47517 | 30790 ft | 444 kts | 182° |
| 2026-05-07 00:08 | 40.36431 | -80.46696 | 31230 ft | 430 kts | 188° |
| 2026-05-07 00:08 | 40.33511 | -80.46311 | 31550 ft | 418 kts | 195° |
| 2026-05-07 00:08 | 40.30624 | -80.46357 | 31886 ft | 405 kts | 201° |
| 2026-05-07 00:08 | 40.27856 | -80.46729 | 31966 ft | 401 kts | 204° |
| 2026-05-07 00:09 | 40.22437 | -80.47762 | 31972 ft | 386 kts | 206° |
| 2026-05-07 00:09 | 40.19711 | -80.48100 | 31965 ft | 398 kts | 199° |
| 2026-05-07 00:09 | 40.16842 | -80.48032 | 31970 ft | 419 kts | 194° |
| 2026-05-07 00:10 | 40.13915 | -80.47556 | 31972 ft | 433 kts | 187° |
| 2026-05-07 00:10 | 40.10933 | -80.46652 | 31971 ft | 449 kts | 182° |
| 2026-05-07 00:10 | 40.04846 | -80.44216 | 31970 ft | 449 kts | 180° |
| 2026-05-07 00:11 | 39.98902 | -80.41885 | 31970 ft | 446 kts | 182° |
| 2026-05-07 00:11 | 39.92982 | -80.39846 | 31973 ft | 436 kts | 184° |
| 2026-05-07 00:12 | 39.86986 | -80.37993 | 31968 ft | 439 kts | 184° |
| 2026-05-07 00:12 | 39.80958 | -80.36186 | 31970 ft | 442 kts | 184° |
| 2026-05-07 00:13 | 39.74990 | -80.34412 | 31974 ft | 438 kts | 184° |
| 2026-05-07 00:13 | 39.69005 | -80.32637 | 31963 ft | 442 kts | 185° |
| 2026-05-07 00:14 | 39.62984 | -80.30876 | 31957 ft | 444 kts | 184° |
| 2026-05-07 00:14 | 39.56965 | -80.29085 | 31967 ft | 437 kts | 184° |
| 2026-05-07 00:15 | 39.51017 | -80.27319 | 31970 ft | 436 kts | 184° |
| 2026-05-07 00:15 | 39.45096 | -80.25580 | 31973 ft | 436 kts | 183° |
| 2026-05-07 00:16 | 39.39099 | -80.23835 | 31968 ft | 441 kts | 183° |
| 2026-05-07 00:16 | 39.33097 | -80.22086 | 31964 ft | 446 kts | 183° |
| 2026-05-07 00:17 | 39.27034 | -80.20306 | 31973 ft | 446 kts | 183° |
| 2026-05-07 00:17 | 39.21055 | -80.18534 | 31970 ft | 433 kts | 182° |
| 2026-05-07 00:18 | 39.15127 | -80.16808 | 31974 ft | 441 kts | 182° |
| 2026-05-07 00:18 | 39.09121 | -80.15075 | 31961 ft | 445 kts | 182° |
| 2026-05-07 00:19 | 39.03067 | -80.13326 | 31963 ft | 444 kts | 182° |
| 2026-05-07 00:19 | 38.97022 | -80.11567 | 31954 ft | 441 kts | 182° |
| 2026-05-07 00:20 | 38.91012 | -80.09888 | 31954 ft | 442 kts | 184° |
| 2026-05-07 00:20 | 38.84995 | -80.08910 | 32376 ft | 432 kts | 189° |
| 2026-05-07 00:21 | 38.82020 | -80.08588 | 32705 ft | 432 kts | 190° |
| 2026-05-07 00:21 | 38.78998 | -80.08282 | 33218 ft | 429 kts | 190° |
| 2026-05-07 00:21 | 38.76053 | -80.07980 | 33624 ft | 429 kts | 191° |
| 2026-05-07 00:21 | 38.73040 | -80.07674 | 33758 ft | 435 kts | 191° |
| 2026-05-07 00:22 | 38.69994 | -80.07359 | 33905 ft | 441 kts | 191° |
| 2026-05-07 00:22 | 38.66916 | -80.07026 | 34347 ft | 439 kts | 191° |
| 2026-05-07 00:22 | 38.63866 | -80.06677 | 34781 ft | 438 kts | 191° |
| 2026-05-07 00:22 | 38.60840 | -80.06328 | 34948 ft | 439 kts | 191° |
| 2026-05-07 00:23 | 38.54776 | -80.05612 | 34950 ft | 434 kts | 191° |
| 2026-05-07 00:23 | 38.48726 | -80.04902 | 34955 ft | 432 kts | 191° |
| 2026-05-07 00:24 | 38.42772 | -80.04198 | 34961 ft | 429 kts | 191° |
| 2026-05-07 00:24 | 38.36812 | -80.03520 | 34959 ft | 432 kts | 192° |
| 2026-05-07 00:25 | 38.30838 | -80.02829 | 34960 ft | 431 kts | 191° |
| 2026-05-07 00:25 | 38.24826 | -80.02134 | 34947 ft | 431 kts | 191° |
| 2026-05-07 00:26 | 38.18835 | -80.01485 | 34941 ft | 428 kts | 193° |
| 2026-05-07 00:26 | 38.12891 | -80.01203 | 34939 ft | 419 kts | 197° |
| 2026-05-07 00:27 | 38.07181 | -80.01723 | 34944 ft | 403 kts | 203° |
| 2026-05-07 00:27 | 38.01622 | -80.02626 | 34955 ft | 402 kts | 206° |
| 2026-05-07 00:28 | 37.98967 | -80.03460 | 34962 ft | 388 kts | 213° |
| 2026-05-07 00:28 | 37.96356 | -80.04449 | 34954 ft | 390 kts | 211° |
| 2026-05-07 00:28 | 37.91085 | -80.06030 | 34958 ft | 392 kts | 209° |
| 2026-05-07 00:29 | 37.85727 | -80.07498 | 34944 ft | 397 kts | 208° |
| 2026-05-07 00:30 | 37.77828 | -80.10067 | 34951 ft | 386 kts | 212° |
| 2026-05-07 00:30 | 37.75246 | -80.10998 | 34942 ft | 391 kts | 212° |
| 2026-05-07 00:30 | 37.70016 | -80.12933 | 34942 ft | 384 kts | 212° |
| 2026-05-07 00:31 | 37.64923 | -80.14850 | 34942 ft | 382 kts | 212° |